This is the latest recevied weather packets stored in our database for station/object IW2NIA-3. If no packets are shown the sender has not sent any weather packets the latest 10 day(s).
| Time | Temp. | Humidity | Pressure | Rain* | Wind** | Luminosity | Snow |
|---|---|---|---|---|---|---|---|
| 1777670328 | 11.11° C | 72% | 1025.1 hPa | 0 mm | - | - | - |
| 1777669421 | 11.67° C | 71% | 1025.1 hPa | 0 mm | - | - | - |
| 1777668512 | 12.22° C | 70% | 1025.2 hPa | 0 mm | - | - | - |
| 1777667610 | 12.78° C | 68% | 1025.1 hPa | 0 mm | - | - | - |
| 1777666722 | 12.78° C | 66% | 1025 hPa | 0 mm | - | - | - |
| 1777665811 | 13.33° C | 63% | 1024.8 hPa | 0 mm | - | - | - |
| 1777664924 | 14.44° C | 61% | 1024.6 hPa | 0 mm | - | - | - |
| 1777664019 | 14.44° C | 60% | 1024.5 hPa | 0 mm | - | - | - |
| 1777663111 | 14.44° C | 56% | 1024.4 hPa | 0 mm | - | - | - |
| 1777662221 | 15° C | 55% | 1024.2 hPa | 0 mm | - | - | - |
| 1777661311 | 16.11° C | 53% | 1024.1 hPa | 0 mm | - | - | - |
| 1777660412 | 16.67° C | 51% | 1023.9 hPa | 0 mm | - | - | - |
| 1777659515 | 17.22° C | 47% | 1023.8 hPa | 0 mm | - | - | - |
| 1777658628 | 17.78° C | 46% | 1023.8 hPa | 0 mm | - | - | - |
| 1777657720 | 18.33° C | 45% | 1023.8 hPa | 0 mm | - | - | - |
| 1777656814 | 18.33° C | 44% | 1023.7 hPa | 0 mm | - | - | - |
| 1777655925 | 18.89° C | 42% | 1023.7 hPa | 0 mm | - | - | - |
| 1777655020 | 19.44° C | 41% | 1023.8 hPa | 0 mm | - | - | - |
| 1777654114 | 19.44° C | 40% | 1023.8 hPa | 0 mm | - | - | - |
| 1777653214 | 19.44° C | 40% | 1023.9 hPa | 0 mm | - | - | - |
| 1777652307 | 20° C | 40% | 1023.9 hPa | 0 mm | - | - | - |
| 1777651418 | 20° C | 38% | 1024 hPa | 0 mm | - | - | - |
| 1777650513 | 20.56° C | 40% | 1024.1 hPa | 0 mm | - | - | - |
| 1777649611 | 20° C | 39% | 1024.4 hPa | 0 mm | - | - | - |
| 1777648724 | 20° C | 39% | 1024.5 hPa | 0 mm | - | - | - |
* Rain latest hour (hover to see other rain measurements)
** Current wind speed in m/s (hover to see current wind gust speed)